^^
Station Historical Data
Daily Summary for August 14, 2017 Units:  Both    English   Metric
« Previous Day
Next Day »
Daily Weekly Monthly Yearly Custom
  High: Low: Average:
Temperature: 79.5 °F /  26.4 °C 47.1 °F /  8.4 °C 62.4 °F /  16.9 °C
Dew Point: 26.1 °F /  -3.3 °C 11.7 °F /  -11.3 °C 19.7 °F /  -6.8 °C
Humidity: 38% 8% 21%
Wind Speed: 10.1mph /  16.3km/h - 1mph /  1.6km/h
Wind Gust: 15.0mph /  24.1km/h - -
Wind- - East
Pressure: 30.39 in /  1029 hPa 30.27 in /  1024.9 hPa -
Precipitation: 0.00 in /  0 mm    
Historical Graphs
 
 
Tabular Data for August 14, 2017
Time Temperature Dew Point Pressure Wind Wind Speed Wind Gust Humidity Rainfall Rate (Hourly) solar Conditions
00:05 49.1 °F /  9.5 °C 19.0 °F /  -7.2 °C 30.33in /  1027hPa Calm     30% 0.00in /  0mm 0.0 W/m2
00:11 49.3 °F /  9.6 °C 19.2 °F /  -7.1 °C 30.33in /  1027hPa Calm     30% 0.00in /  0mm 0.0 W/m2
00:18 49.3 °F /  9.6 °C 19.2 °F /  -7.1 °C 30.33in /  1027hPa Calm     30% 0.00in /  0mm 0.0 W/m2
00:24 49.3 °F /  9.6 °C 19.2 °F /  -7.1 °C 30.33in /  1027hPa Calm   1.0mph /  1.6km/h 30% 0.00in /  0mm 0.0 W/m2
00:30 49.3 °F /  9.6 °C 19.2 °F /  -7.1 °C 30.32in /  1026.6hPa Calm     30% 0.00in /  0mm 0.0 W/m2
00:36 49.3 °F /  9.6 °C 19.2 °F /  -7.1 °C 30.32in /  1026.6hPa Calm   1.0mph /  1.6km/h 30% 0.00in /  0mm 0.0 W/m2
00:42 49.5 °F /  9.7 °C 20.1 °F /  -6.6 °C 30.32in /  1026.6hPa Calm     31% 0.00in /  0mm 0.0 W/m2
00:48 49.5 °F /  9.7 °C 19.2 °F /  -7.1 °C 30.32in /  1026.6hPa Calm   1.0mph /  1.6km/h 30% 0.00in /  0mm 0.0 W/m2
00:54 49.6 °F /  9.8 °C 19.4 °F /  -7 °C 30.32in /  1026.6hPa Calm     30% 0.00in /  0mm 0.0 W/m2
01:01 49.6 °F /  9.8 °C 19.4 °F /  -7 °C 30.32in /  1026.6hPa Calm     30% 0.00in /  0mm 0.0 W/m2
01:07 49.6 °F /  9.8 °C 19.4 °F /  -7 °C 30.33in /  1027hPa Calm     30% 0.00in /  0mm 0.0 W/m2
01:13 49.6 °F /  9.8 °C 19.4 °F /  -7 °C 30.33in /  1027hPa Calm     30% 0.00in /  0mm 0.0 W/m2
01:19 49.6 °F /  9.8 °C 19.4 °F /  -7 °C 30.33in /  1027hPa Calm     30% 0.00in /  0mm 0.0 W/m2
01:25 49.5 °F /  9.7 °C 19.2 °F /  -7.1 °C 30.33in /  1027hPa Calm     30% 0.00in /  0mm 0.0 W/m2
01:31 49.5 °F /  9.7 °C 19.2 °F /  -7.1 °C 30.33in /  1027hPa Calm     30% 0.00in /  0mm 0.0 W/m2
01:37 49.3 °F /  9.6 °C 19.2 °F /  -7.1 °C 30.33in /  1027hPa Calm     30% 0.00in /  0mm 0.0 W/m2
01:44 49.3 °F /  9.6 °C 19.2 °F /  -7.1 °C 30.33in /  1027hPa Calm     30% 0.00in /  0mm 0.0 W/m2
01:50 48.9 °F /  9.4 °C 18.9 °F /  -7.3 °C 30.33in /  1027hPa Calm   4.0mph /  6.4km/h 30% 0.00in /  0mm 0.0 W/m2
01:56 48.9 °F /  9.4 °C 18.9 °F /  -7.3 °C 30.33in /  1027hPa Calm   3.0mph /  4.8km/h 30% 0.00in /  0mm 0.0 W/m2
02:02 49.8 °F /  9.9 °C 18.9 °F /  -7.3 °C 30.33in /  1027hPa NE 2.0mph /  3.2km/h 3.0mph /  4.8km/h 29% 0.00in /  0mm 0.0 W/m2
02:08 51.4 °F /  10.8 °C 18.5 °F /  -7.5 °C 30.33in /  1027hPa East 0.9mph /  1.4km/h 4.0mph /  6.4km/h 27% 0.00in /  0mm 0.0 W/m2
02:14 53.1 °F /  11.7 °C 19.0 °F /  -7.2 °C 30.33in /  1027hPa Calm   2.0mph /  3.2km/h 26% 0.00in /  0mm 0.0 W/m2
02:20 53.6 °F /  12 °C 19.6 °F /  -6.9 °C 30.33in /  1027hPa Calm     26% 0.00in /  0mm 0.0 W/m2
02:27 53.4 °F /  11.9 °C 19.4 °F /  -7 °C 30.33in /  1027hPa Calm     26% 0.00in /  0mm 0.0 W/m2
02:33 53.2 °F /  11.8 °C 19.2 °F /  -7.1 °C 30.33in /  1027hPa Calm   1.0mph /  1.6km/h 26% 0.00in /  0mm 0.0 W/m2
02:39 52.9 °F /  11.6 °C 18.9 °F /  -7.3 °C 30.33in /  1027hPa Calm   1.0mph /  1.6km/h 26% 0.00in /  0mm 0.0 W/m2
02:45 52.3 °F /  11.3 °C 18.5 °F /  -7.5 °C 30.33in /  1027hPa Calm     26% 0.00in /  0mm 0.0 W/m2
02:51 52.0 °F /  11.1 °C 19.0 °F /  -7.2 °C 30.33in /  1027hPa Calm     27% 0.00in /  0mm 0.0 W/m2
02:57 51.4 °F /  10.8 °C 19.4 °F /  -7 °C 30.33in /  1027hPa Calm     28% 0.00in /  0mm 0.0 W/m2
03:04 50.9 °F /  10.5 °C 19.8 °F /  -6.8 °C 30.33in /  1027hPa Calm     29% 0.00in /  0mm 0.0 W/m2
03:10 50.4 °F /  10.2 °C 19.2 °F /  -7.1 °C 30.33in /  1027hPa Calm     29% 0.00in /  0mm 0.0 W/m2
03:16 49.6 °F /  9.8 °C 19.4 °F /  -7 °C 30.33in /  1027hPa Calm     30% 0.00in /  0mm 0.0 W/m2
03:22 49.3 °F /  9.6 °C 19.2 °F /  -7.1 °C 30.33in /  1027hPa Calm     30% 0.00in /  0mm 0.0 W/m2
03:28 48.7 °F /  9.3 °C 18.7 °F /  -7.4 °C 30.33in /  1027hPa Calm     30% 0.00in /  0mm 0.0 W/m2
03:34 48.4 °F /  9.1 °C 19.9 °F /  -6.7 °C 30.33in /  1027hPa Calm     32% 0.00in /  0mm 0.0 W/m2
03:40 48.0 °F /  8.9 °C 19.6 °F /  -6.9 °C 30.33in /  1027hPa Calm     32% 0.00in /  0mm 0.0 W/m2
03:47 47.8 °F /  8.8 °C 19.4 °F /  -7 °C 30.33in /  1027hPa Calm     32% 0.00in /  0mm 0.0 W/m2
03:53 47.7 °F /  8.7 °C 19.9 °F /  -6.7 °C 30.33in /  1027hPa Calm     33% 0.00in /  0mm 0.0 W/m2
03:59 47.5 °F /  8.6 °C 19.8 °F /  -6.8 °C 30.33in /  1027hPa Calm     33% 0.00in /  0mm 0.0 W/m2
04:05 47.5 °F /  8.6 °C 19.8 °F /  -6.8 °C 30.33in /  1027hPa Calm     33% 0.00in /  0mm 0.0 W/m2
04:11 47.3 °F /  8.5 °C 20.3 °F /  -6.5 °C 30.33in /  1027hPa Calm     34% 0.00in /  0mm 0.0 W/m2
04:17 47.3 °F /  8.5 °C 20.3 °F /  -6.5 °C 30.33in /  1027hPa Calm     34% 0.00in /  0mm 0.0 W/m2
04:23 47.1 °F /  8.4 °C 20.1 °F /  -6.6 °C 30.34in /  1027.3hPa Calm   1.0mph /  1.6km/h 34% 0.00in /  0mm 0.0 W/m2
04:30 47.3 °F /  8.5 °C 20.3 °F /  -6.5 °C 30.34in /  1027.3hPa Calm     34% 0.00in /  0mm 0.0 W/m2
04:36 47.5 °F /  8.6 °C 20.5 °F /  -6.4 °C 30.34in /  1027.3hPa Calm     34% 0.00in /  0mm 0.0 W/m2
04:42 47.5 °F /  8.6 °C 20.5 °F /  -6.4 °C 30.34in /  1027.3hPa Calm     34% 0.00in /  0mm 0.0 W/m2
04:48 47.5 °F /  8.6 °C 20.5 °F /  -6.4 °C 30.34in /  1027.3hPa Calm     34% 0.00in /  0mm 0.0 W/m2
04:54 47.5 °F /  8.6 °C 20.5 °F /  -6.4 °C 30.34in /  1027.3hPa Calm     34% 0.00in /  0mm 0.0 W/m2
05:00 47.7 °F /  8.7 °C 21.4 °F /  -5.9 °C 30.34in /  1027.3hPa Calm     35% 0.00in /  0mm 0.0 W/m2
05:07 47.7 °F /  8.7 °C 21.4 °F /  -5.9 °C 30.34in /  1027.3hPa Calm     35% 0.00in /  0mm 0.0 W/m2
05:13 47.7 °F /  8.7 °C 21.4 °F /  -5.9 °C 30.34in /  1027.3hPa Calm     35% 0.00in /  0mm 0.0 W/m2
05:19 48.0 °F /  8.9 °C 21.7 °F /  -5.7 °C 30.35in /  1027.7hPa Calm     35% 0.00in /  0mm 0.0 W/m2
05:27 48.2 °F /  9 °C 21.7 °F /  -5.7 °C 30.34in /  1027.3hPa Calm     35% 0.00in /  0mm 0.0 W/m2
05:33 48.2 °F /  9 °C 21.7 °F /  -5.7 °C 30.35in /  1027.7hPa Calm     35% 0.00in /  0mm 0.0 W/m2
05:39 48.4 °F /  9.1 °C 21.9 °F /  -5.6 °C 30.35in /  1027.7hPa Calm     35% 0.00in /  0mm 0.0 W/m2
05:45 48.4 °F /  9.1 °C 21.9 °F /  -5.6 °C 30.34in /  1027.3hPa Calm   2.0mph /  3.2km/h 35% 0.00in /  0mm 0.0 W/m2
05:52 48.6 °F /  9.2 °C 22.1 °F /  -5.5 °C 30.34in /  1027.3hPa Calm     35% 0.00in /  0mm 0.0 W/m2
05:58 48.6 °F /  9.2 °C 22.1 °F /  -5.5 °C 30.34in /  1027.3hPa Calm     35% 0.00in /  0mm 0.0 W/m2
06:04 48.6 °F /  9.2 °C 22.1 °F /  -5.5 °C 30.35in /  1027.7hPa Calm   1.0mph /  1.6km/h 35% 0.00in /  0mm 0.0 W/m2
06:10 48.6 °F /  9.2 °C 22.1 °F /  -5.5 °C 30.35in /  1027.7hPa Calm     35% 0.00in /  0mm 0.0 W/m2
06:16 48.4 °F /  9.1 °C 21.9 °F /  -5.6 °C 30.35in /  1027.7hPa Calm     35% 0.00in /  0mm 0.0 W/m2
06:23 48.4 °F /  9.1 °C 21.9 °F /  -5.6 °C 30.36in /  1028hPa Calm     35% 0.00in /  0mm 5.0 W/m2
06:29 48.0 °F /  8.9 °C 21.7 °F /  -5.7 °C 30.36in /  1028hPa Calm     35% 0.00in /  0mm 7.0 W/m2
06:35 48.0 °F /  8.9 °C 21.7 °F /  -5.7 °C 30.36in /  1028hPa Calm     35% 0.00in /  0mm 11.0 W/m2
06:41 48.0 °F /  8.9 °C 22.3 °F /  -5.4 °C 30.36in /  1028hPa Calm     36% 0.00in /  0mm 12.0 W/m2
06:47 48.0 °F /  8.9 °C 22.3 °F /  -5.4 °C 30.37in /  1028.3hPa Calm     36% 0.00in /  0mm 14.0 W/m2
06:53 48.0 °F /  8.9 °C 22.3 °F /  -5.4 °C 30.37in /  1028.3hPa Calm     36% 0.00in /  0mm 16.0 W/m2
06:59 48.0 °F /  8.9 °C 23.0 °F /  -5 °C 30.38in /  1028.7hPa Calm     37% 0.00in /  0mm 18.0 W/m2
07:05 48.4 °F /  9.1 °C 23.9 °F /  -4.5 °C 30.38in /  1028.7hPa Calm     38% 0.00in /  0mm 18.0 W/m2
07:11 48.6 °F /  9.2 °C 23.5 °F /  -4.7 °C 30.38in /  1028.7hPa Calm     37% 0.00in /  0mm 19.0 W/m2
07:17 48.7 °F /  9.3 °C 24.3 °F /  -4.3 °C 30.38in /  1028.7hPa Calm     38% 0.00in /  0mm 21.0 W/m2
07:23 48.9 °F /  9.4 °C 24.4 °F /  -4.2 °C 30.38in /  1028.7hPa Calm     38% 0.00in /  0mm 23.0 W/m2
07:29 49.5 °F /  9.7 °C 25.0 °F /  -3.9 °C 30.38in /  1028.7hPa Calm     38% 0.00in /  0mm 26.0 W/m2
07:35 50.4 °F /  10.2 °C 24.4 °F /  -4.2 °C 30.38in /  1028.7hPa Calm     36% 0.00in /  0mm 25.0 W/m2
07:41 51.1 °F /  10.6 °C 24.4 °F /  -4.2 °C 30.38in /  1028.7hPa Calm     35% 0.00in /  0mm 26.0 W/m2
07:47 51.6 °F /  10.9 °C 25.5 °F /  -3.6 °C 30.39in /  1029hPa Calm     36% 0.00in /  0mm 28.0 W/m2
07:53 52.3 °F /  11.3 °C 24.8 °F /  -4 °C 30.39in /  1029hPa Calm     34% 0.00in /  0mm 28.0 W/m2
07:59 53.2 °F /  11.8 °C 24.8 °F /  -4 °C 30.39in /  1029hPa Calm     33% 0.00in /  0mm 28.0 W/m2
08:05 54.7 °F /  12.6 °C 24.6 °F /  -4.1 °C 30.39in /  1029hPa Calm     31% 0.00in /  0mm 30.0 W/m2
08:11 55.8 °F /  13.2 °C 24.8 °F /  -4 °C 30.39in /  1029hPa NE 2.9mph /  4.7km/h 3.0mph /  4.8km/h 30% 0.00in /  0mm 30.0 W/m2
08:17 57.6 °F /  14.2 °C 23.9 °F /  -4.5 °C 30.39in /  1029hPa Calm   4.0mph /  6.4km/h 27% 0.00in /  0mm 32.0 W/m2
08:23 59.5 °F /  15.3 °C 24.6 °F /  -4.1 °C 30.39in /  1029hPa Calm   6.0mph /  9.7km/h 26% 0.00in /  0mm 32.0 W/m2
08:29 61.3 °F /  16.3 °C 24.3 °F /  -4.3 °C 30.39in /  1029hPa NNE 2.9mph /  4.7km/h 7.0mph /  11.3km/h 24% 0.00in /  0mm 104.0 W/m2
08:35 63.3 °F /  17.4 °C 24.8 °F /  -4 °C 30.39in /  1029hPa Calm   7.0mph /  11.3km/h 23% 0.00in /  0mm 464.0 W/m2
08:42 64.9 °F /  18.3 °C 24.1 °F /  -4.4 °C 30.39in /  1029hPa Calm   4.0mph /  6.4km/h 21% 0.00in /  0mm 485.0 W/m2
08:47 66.4 °F /  19.1 °C 25.3 °F /  -3.7 °C 30.39in /  1029hPa NE 4.0mph /  6.4km/h 4.0mph /  6.4km/h 21% 0.00in /  0mm 504.0 W/m2
08:53 67.6 °F /  19.8 °C 25.2 °F /  -3.8 °C 30.39in /  1029hPa Calm   5.0mph /  8km/h 20% 0.00in /  0mm 522.0 W/m2
08:59 68.7 °F /  20.4 °C 24.8 °F /  -4 °C 30.39in /  1029hPa SE 2.0mph /  3.2km/h 7.0mph /  11.3km/h 19% 0.00in /  0mm 540.0 W/m2
09:05 69.3 °F /  20.7 °C 25.2 °F /  -3.8 °C 30.39in /  1029hPa Calm   8.0mph /  12.9km/h 19% 0.00in /  0mm 557.0 W/m2
09:11 70.2 °F /  21.2 °C 26.1 °F /  -3.3 °C 30.39in /  1029hPa NE 4.0mph /  6.4km/h 5.0mph /  8km/h 19% 0.00in /  0mm 578.0 W/m2
09:17 71.1 °F /  21.7 °C 25.3 °F /  -3.7 °C 30.39in /  1029hPa East 2.0mph /  3.2km/h 6.0mph /  9.7km/h 18% 0.00in /  0mm 596.0 W/m2
09:23 71.8 °F /  22.1 °C 23.2 °F /  -4.9 °C 30.39in /  1029hPa North 4.9mph /  7.9km/h 9.0mph /  14.5km/h 16% 0.00in /  0mm 612.0 W/m2
09:29 72.3 °F /  22.4 °C 23.5 °F /  -4.7 °C 30.39in /  1029hPa NNE 0.9mph /  1.4km/h 8.0mph /  12.9km/h 16% 0.00in /  0mm 626.0 W/m2
09:35 72.7 °F /  22.6 °C 23.9 °F /  -4.5 °C 30.39in /  1029hPa NNW 2.9mph /  4.7km/h 8.0mph /  12.9km/h 16% 0.00in /  0mm 642.0 W/m2
09:42 72.9 °F /  22.7 °C 24.1 °F /  -4.4 °C 30.39in /  1029hPa NE 2.0mph /  3.2km/h 7.0mph /  11.3km/h 16% 0.00in /  0mm 654.0 W/m2
09:47 73.0 °F /  22.8 °C 22.6 °F /  -5.2 °C 30.38in /  1028.7hPa North 6.0mph /  9.7km/h 6.0mph /  9.7km/h 15% 0.00in /  0mm 668.0 W/m2
09:54 73.2 °F /  22.9 °C 21.2 °F /  -6 °C 30.38in /  1028.7hPa Calm   7.0mph /  11.3km/h 14% 0.00in /  0mm 684.0 W/m2
10:00 73.2 °F /  22.9 °C 21.2 °F /  -6 °C 30.39in /  1029hPa North 2.9mph /  4.7km/h 7.0mph /  11.3km/h 14% 0.00in /  0mm 694.0 W/m2
10:06 73.6 °F /  23.1 °C 23.0 °F /  -5 °C 30.39in /  1029hPa North 6.0mph /  9.7km/h 7.0mph /  11.3km/h 15% 0.00in /  0mm 707.0 W/m2
10:12 73.8 °F /  23.2 °C 23.2 °F /  -4.9 °C 30.38in /  1028.7hPa NNW 0.9mph /  1.4km/h 5.0mph /  8km/h 15% 0.00in /  0mm 717.0 W/m2
10:18 73.9 °F /  23.3 °C 23.4 °F /  -4.8 °C 30.38in /  1028.7hPa NNW 2.9mph /  4.7km/h 5.0mph /  8km/h 15% 0.00in /  0mm 729.0 W/m2
10:24 74.1 °F /  23.4 °C 23.5 °F /  -4.7 °C 30.38in /  1028.7hPa NE 6.0mph /  9.7km/h 9.0mph /  14.5km/h 15% 0.00in /  0mm 738.0 W/m2
10:30 74.5 °F /  23.6 °C 23.7 °F /  -4.6 °C 30.38in /  1028.7hPa Calm   6.0mph /  9.7km/h 15% 0.00in /  0mm 745.0 W/m2
10:36 74.8 °F /  23.8 °C 24.1 °F /  -4.4 °C 30.38in /  1028.7hPa East 2.0mph /  3.2km/h 8.0mph /  12.9km/h 15% 0.00in /  0mm 754.0 W/m2
10:42 75.0 °F /  23.9 °C 22.6 °F /  -5.2 °C 30.38in /  1028.7hPa ENE 0.9mph /  1.4km/h 5.0mph /  8km/h 14% 0.00in /  0mm 765.0 W/m2
10:48 75.6 °F /  24.2 °C 23.0 °F /  -5 °C 30.38in /  1028.7hPa SE 0.9mph /  1.4km/h 6.0mph /  9.7km/h 14% 0.00in /  0mm 770.0 W/m2
10:54 75.7 °F /  24.3 °C 23.2 °F /  -4.9 °C 30.37in /  1028.3hPa Calm   6.0mph /  9.7km/h 14% 0.00in /  0mm 777.0 W/m2
11:00 75.7 °F /  24.3 °C 23.2 °F /  -4.9 °C 30.37in /  1028.3hPa ENE 0.9mph /  1.4km/h 8.0mph /  12.9km/h 14% 0.00in /  0mm 784.0 W/m2
11:06 76.3 °F /  24.6 °C 21.7 °F /  -5.7 °C 30.37in /  1028.3hPa ESE 6.9mph /  11.1km/h 7.0mph /  11.3km/h 13% 0.00in /  0mm 793.0 W/m2
11:12 76.5 °F /  24.7 °C 21.9 °F /  -5.6 °C 30.36in /  1028hPa NNE 4.9mph /  7.9km/h 7.0mph /  11.3km/h 13% 0.00in /  0mm 793.0 W/m2
11:18 76.3 °F /  24.6 °C 21.7 °F /  -5.7 °C 30.36in /  1028hPa East 2.0mph /  3.2km/h 5.0mph /  8km/h 13% 0.00in /  0mm 800.0 W/m2
11:24 76.3 °F /  24.6 °C 21.7 °F /  -5.7 °C 30.36in /  1028hPa East 8.1mph /  13km/h 15.0mph /  24.1km/h 13% 0.00in /  0mm 803.0 W/m2
11:30 76.3 °F /  24.6 °C 19.9 °F /  -6.7 °C 30.36in /  1028hPa NNW 2.0mph /  3.2km/h 5.0mph /  8km/h 12% 0.00in /  0mm 807.0 W/m2
11:36 76.6 °F /  24.8 °C 22.1 °F /  -5.5 °C 30.36in /  1028hPa East 0.9mph /  1.4km/h 6.0mph /  9.7km/h 13% 0.00in /  0mm 810.0 W/m2
11:42 76.6 °F /  24.8 °C 20.3 °F /  -6.5 °C 30.35in /  1027.7hPa NNE 6.0mph /  9.7km/h 6.0mph /  9.7km/h 12% 0.00in /  0mm 807.0 W/m2
11:48 76.8 °F /  24.9 °C 22.3 °F /  -5.4 °C 30.35in /  1027.7hPa SE 2.9mph /  4.7km/h 4.0mph /  6.4km/h 13% 0.00in /  0mm 809.0 W/m2
11:54 76.6 °F /  24.8 °C 22.1 °F /  -5.5 °C 30.35in /  1027.7hPa NE 2.0mph /  3.2km/h 7.0mph /  11.3km/h 13% 0.00in /  0mm 809.0 W/m2
12:00 76.8 °F /  24.9 °C 20.3 °F /  -6.5 °C 30.34in /  1027.3hPa ENE 2.0mph /  3.2km/h 8.0mph /  12.9km/h 12% 0.00in /  0mm 809.0 W/m2
12:06 77.2 °F /  25.1 °C 20.7 °F /  -6.3 °C 30.34in /  1027.3hPa North 0.9mph /  1.4km/h 6.0mph /  9.7km/h 12% 0.00in /  0mm 809.0 W/m2
12:12 77.5 °F /  25.3 °C 20.8 °F /  -6.2 °C 30.33in /  1027hPa NNW 4.9mph /  7.9km/h 7.0mph /  11.3km/h 12% 0.00in /  0mm 805.0 W/m2
12:18 78.1 °F /  25.6 °C 21.4 °F /  -5.9 °C 30.33in /  1027hPa NNW 0.9mph /  1.4km/h 8.0mph /  12.9km/h 12% 0.00in /  0mm 800.0 W/m2
12:24 78.3 °F /  25.7 °C 19.4 °F /  -7 °C 30.32in /  1026.6hPa Calm   1.0mph /  1.6km/h 11% 0.00in /  0mm 796.0 W/m2
12:30 78.6 °F /  25.9 °C 21.7 °F /  -5.7 °C 30.32in /  1026.6hPa ESE 4.9mph /  7.9km/h 7.0mph /  11.3km/h 12% 0.00in /  0mm 793.0 W/m2
12:36 78.6 °F /  25.9 °C 21.7 °F /  -5.7 °C 30.32in /  1026.6hPa East 0.9mph /  1.4km/h 6.0mph /  9.7km/h 12% 0.00in /  0mm 788.0 W/m2
12:42 78.1 °F /  25.6 °C 19.2 °F /  -7.1 °C 30.32in /  1026.6hPa East 0.9mph /  1.4km/h 5.0mph /  8km/h 11% 0.00in /  0mm 780.0 W/m2
12:48 77.2 °F /  25.1 °C 20.7 °F /  -6.3 °C 30.31in /  1026.3hPa NE 0.9mph /  1.4km/h 6.0mph /  9.7km/h 12% 0.00in /  0mm 773.0 W/m2
12:54 77.4 °F /  25.2 °C 20.8 °F /  -6.2 °C 30.31in /  1026.3hPa Calm   2.0mph /  3.2km/h 12% 0.00in /  0mm 766.0 W/m2
13:00 77.7 °F /  25.4 °C 19.0 °F /  -7.2 °C 30.31in /  1026.3hPa North 0.9mph /  1.4km/h 4.0mph /  6.4km/h 11% 0.00in /  0mm 759.0 W/m2
13:06 78.1 °F /  25.6 °C 19.2 °F /  -7.1 °C 30.31in /  1026.3hPa SE 2.0mph /  3.2km/h 6.0mph /  9.7km/h 11% 0.00in /  0mm 756.0 W/m2
13:12 78.3 °F /  25.7 °C 19.4 °F /  -7 °C 30.30in /  1026hPa NNE 2.0mph /  3.2km/h 8.0mph /  12.9km/h 11% 0.00in /  0mm 747.0 W/m2
13:18 78.6 °F /  25.9 °C 19.8 °F /  -6.8 °C 30.30in /  1026hPa NNE 4.0mph /  6.4km/h 7.0mph /  11.3km/h 11% 0.00in /  0mm 737.0 W/m2
13:24 78.6 °F /  25.9 °C 19.8 °F /  -6.8 °C 30.30in /  1026hPa North 6.9mph /  11.1km/h 8.0mph /  12.9km/h 11% 0.00in /  0mm 724.0 W/m2
13:30 78.8 °F /  26 °C 19.8 °F /  -6.8 °C 30.29in /  1025.6hPa Calm   2.0mph /  3.2km/h 11% 0.00in /  0mm 714.0 W/m2
13:36 79.0 °F /  26.1 °C 19.9 °F /  -6.7 °C 30.29in /  1025.6hPa East 0.9mph /  1.4km/h 6.0mph /  9.7km/h 11% 0.00in /  0mm 703.0 W/m2
13:42 78.8 °F /  26 °C 19.8 °F /  -6.8 °C 30.29in /  1025.6hPa NE 10.1mph /  16.3km/h 12.0mph /  19.3km/h 11% 0.00in /  0mm 689.0 W/m2
13:48 78.6 °F /  25.9 °C 19.8 °F /  -6.8 °C 30.29in /  1025.6hPa Calm   3.0mph /  4.8km/h 11% 0.00in /  0mm 680.0 W/m2
13:54 79.0 °F /  26.1 °C 17.8 °F /  -7.9 °C 30.28in /  1025.3hPa East 4.0mph /  6.4km/h 7.0mph /  11.3km/h 10% 0.00in /  0mm 666.0 W/m2
14:00 79.2 °F /  26.2 °C 18.0 °F /  -7.8 °C 30.28in /  1025.3hPa NNE 2.9mph /  4.7km/h 6.0mph /  9.7km/h 10% 0.00in /  0mm 654.0 W/m2
14:06 79.3 °F /  26.3 °C 18.0 °F /  -7.8 °C 30.28in /  1025.3hPa East 2.0mph /  3.2km/h 6.0mph /  9.7km/h 10% 0.00in /  0mm 643.0 W/m2
14:12 79.3 °F /  26.3 °C 18.0 °F /  -7.8 °C 30.28in /  1025.3hPa North 0.9mph /  1.4km/h 4.0mph /  6.4km/h 10% 0.00in /  0mm 629.0 W/m2
14:18 79.2 °F /  26.2 °C 15.4 °F /  -9.2 °C 30.28in /  1025.3hPa Calm     9% 0.00in /  0mm 612.0 W/m2
14:24 79.2 °F /  26.2 °C 20.1 °F /  -6.6 °C 30.28in /  1025.3hPa SE 2.0mph /  3.2km/h 7.0mph /  11.3km/h 11% 0.00in /  0mm 596.0 W/m2
14:30 79.3 °F /  26.3 °C 18.0 °F /  -7.8 °C 30.28in /  1025.3hPa ENE 2.9mph /  4.7km/h 3.0mph /  4.8km/h 10% 0.00in /  0mm 582.0 W/m2
14:36 79.2 °F /  26.2 °C 18.0 °F /  -7.8 °C 30.28in /  1025.3hPa ENE 0.9mph /  1.4km/h 4.0mph /  6.4km/h 10% 0.00in /  0mm 564.0 W/m2
14:42 79.2 °F /  26.2 °C 18.0 °F /  -7.8 °C 30.28in /  1025.3hPa Calm   3.0mph /  4.8km/h 10% 0.00in /  0mm 547.0 W/m2
14:48 79.0 °F /  26.1 °C 17.8 °F /  -7.9 °C 30.28in /  1025.3hPa NNE 2.9mph /  4.7km/h 4.0mph /  6.4km/h 10% 0.00in /  0mm 529.0 W/m2
14:54 79.2 °F /  26.2 °C 15.4 °F /  -9.2 °C 30.28in /  1025.3hPa ENE 0.9mph /  1.4km/h 6.0mph /  9.7km/h 9% 0.00in /  0mm 512.0 W/m2
15:00 79.3 °F /  26.3 °C 15.6 °F /  -9.1 °C 30.28in /  1025.3hPa ESE 6.0mph /  9.7km/h 6.0mph /  9.7km/h 9% 0.00in /  0mm 492.0 W/m2
15:06 79.5 °F /  26.4 °C 15.8 °F /  -9 °C 30.28in /  1025.3hPa Calm   6.0mph /  9.7km/h 9% 0.00in /  0mm 475.0 W/m2
15:12 79.5 °F /  26.4 °C 13.1 °F /  -10.5 °C 30.28in /  1025.3hPa Calm   9.0mph /  14.5km/h 8% 0.00in /  0mm 454.0 W/m2
15:18 79.3 °F /  26.3 °C 15.6 °F /  -9.1 °C 30.28in /  1025.3hPa North 2.9mph /  4.7km/h 3.0mph /  4.8km/h 9% 0.00in /  0mm 432.0 W/m2
15:24 79.2 °F /  26.2 °C 15.4 °F /  -9.2 °C 30.28in /  1025.3hPa NE 4.0mph /  6.4km/h 5.0mph /  8km/h 9% 0.00in /  0mm 415.0 W/m2
15:30 79.3 °F /  26.3 °C 15.6 °F /  -9.1 °C 30.27in /  1024.9hPa Calm   5.0mph /  8km/h 9% 0.00in /  0mm 392.0 W/m2
15:37 79.3 °F /  26.3 °C 15.6 °F /  -9.1 °C 30.28in /  1025.3hPa East 2.9mph /  4.7km/h 4.0mph /  6.4km/h 9% 0.00in /  0mm 369.0 W/m2
15:43 79.2 °F /  26.2 °C 12.7 °F /  -10.7 °C 30.27in /  1024.9hPa ENE 0.9mph /  1.4km/h 5.0mph /  8km/h 8% 0.00in /  0mm 352.0 W/m2
15:49 78.4 °F /  25.8 °C 14.9 °F /  -9.5 °C 30.28in /  1025.3hPa NE 2.9mph /  4.7km/h 6.0mph /  9.7km/h 9% 0.00in /  0mm 330.0 W/m2
15:55 77.7 °F /  25.4 °C 14.4 °F /  -9.8 °C 30.28in /  1025.3hPa NW 2.0mph /  3.2km/h 5.0mph /  8km/h 9% 0.00in /  0mm 301.0 W/m2
16:01 77.5 °F /  25.3 °C 11.7 °F /  -11.3 °C 30.28in /  1025.3hPa East 2.9mph /  4.7km/h 4.0mph /  6.4km/h 8% 0.00in /  0mm 47.0 W/m2
16:07 77.4 °F /  25.2 °C 16.5 °F /  -8.6 °C 30.28in /  1025.3hPa ESE 4.9mph /  7.9km/h 5.0mph /  8km/h 10% 0.00in /  0mm 40.0 W/m2
16:13 77.2 °F /  25.1 °C 16.3 °F /  -8.7 °C 30.28in /  1025.3hPa North 2.0mph /  3.2km/h 3.0mph /  4.8km/h 10% 0.00in /  0mm 39.0 W/m2
16:20 76.8 °F /  24.9 °C 16.2 °F /  -8.8 °C 30.28in /  1025.3hPa ESE 2.9mph /  4.7km/h 3.0mph /  4.8km/h 10% 0.00in /  0mm 35.0 W/m2
16:26 76.6 °F /  24.8 °C 16.0 °F /  -8.9 °C 30.28in /  1025.3hPa Calm   3.0mph /  4.8km/h 10% 0.00in /  0mm 37.0 W/m2
16:32 76.3 °F /  24.6 °C 15.6 °F /  -9.1 °C 30.28in /  1025.3hPa Calm   4.0mph /  6.4km/h 10% 0.00in /  0mm 51.0 W/m2
16:38 76.1 °F /  24.5 °C 17.8 °F /  -7.9 °C 30.28in /  1025.3hPa SE 0.9mph /  1.4km/h 5.0mph /  8km/h 11% 0.00in /  0mm 67.0 W/m2
16:44 75.7 °F /  24.3 °C 17.4 °F /  -8.1 °C 30.29in /  1025.6hPa Calm   9.0mph /  14.5km/h 11% 0.00in /  0mm 39.0 W/m2
16:50 75.4 °F /  24.1 °C 17.2 °F /  -8.2 °C 30.28in /  1025.3hPa Calm   6.0mph /  9.7km/h 11% 0.00in /  0mm 23.0 W/m2
16:56 75.0 °F /  23.9 °C 16.9 °F /  -8.4 °C 30.29in /  1025.6hPa NNE 2.9mph /  4.7km/h 8.0mph /  12.9km/h 11% 0.00in /  0mm 32.0 W/m2
17:02 74.7 °F /  23.7 °C 16.7 °F /  -8.5 °C 30.29in /  1025.6hPa NNE 2.9mph /  4.7km/h 6.0mph /  9.7km/h 11% 0.00in /  0mm 21.0 W/m2
17:08 74.1 °F /  23.4 °C 18.3 °F /  -7.6 °C 30.29in /  1025.6hPa Calm   3.0mph /  4.8km/h 12% 0.00in /  0mm 21.0 W/m2
17:14 73.8 °F /  23.2 °C 18.0 °F /  -7.8 °C 30.30in /  1026hPa Calm   2.0mph /  3.2km/h 12% 0.00in /  0mm 14.0 W/m2
17:20 73.2 °F /  22.9 °C 17.6 °F /  -8 °C 30.29in /  1025.6hPa NNE 0.9mph /  1.4km/h 2.0mph /  3.2km/h 12% 0.00in /  0mm 11.0 W/m2
17:26 72.9 °F /  22.7 °C 17.2 °F /  -8.2 °C 30.30in /  1026hPa ENE 2.0mph /  3.2km/h 3.0mph /  4.8km/h 12% 0.00in /  0mm 9.0 W/m2
17:32 72.1 °F /  22.3 °C 18.5 °F /  -7.5 °C 30.30in /  1026hPa Calm   1.0mph /  1.6km/h 13% 0.00in /  0mm 5.0 W/m2
17:38 71.8 °F /  22.1 °C 16.5 °F /  -8.6 °C 30.30in /  1026hPa Calm   3.0mph /  4.8km/h 12% 0.00in /  0mm 0.0 W/m2
17:45 71.1 °F /  21.7 °C 17.8 °F /  -7.9 °C 30.30in /  1026hPa Calm   1.0mph /  1.6km/h 13% 0.00in /  0mm 0.0 W/m2
17:50 70.5 °F /  21.4 °C 19.0 °F /  -7.2 °C 30.30in /  1026hPa Calm     14% 0.00in /  0mm 0.0 W/m2
17:56 69.6 °F /  20.9 °C 18.3 °F /  -7.6 °C 30.30in /  1026hPa Calm     14% 0.00in /  0mm 0.0 W/m2
18:02 68.7 °F /  20.4 °C 17.6 °F /  -8 °C 30.30in /  1026hPa Calm     14% 0.00in /  0mm 0.0 W/m2
18:09 68.0 °F /  20 °C 18.7 °F /  -7.4 °C 30.30in /  1026hPa Calm     15% 0.00in /  0mm 0.0 W/m2
18:15 67.1 °F /  19.5 °C 18.0 °F /  -7.8 °C 30.30in /  1026hPa Calm     15% 0.00in /  0mm 0.0 W/m2
18:21 66.4 °F /  19.1 °C 18.9 °F /  -7.3 °C 30.30in /  1026hPa Calm   2.0mph /  3.2km/h 16% 0.00in /  0mm 0.0 W/m2
18:27 65.7 °F /  18.7 °C 18.3 °F /  -7.6 °C 30.30in /  1026hPa Calm   2.0mph /  3.2km/h 16% 0.00in /  0mm 0.0 W/m2
18:33 64.9 °F /  18.3 °C 17.6 °F /  -8 °C 30.31in /  1026.3hPa Calm   1.0mph /  1.6km/h 16% 0.00in /  0mm 0.0 W/m2
18:39 64.4 °F /  18 °C 18.7 °F /  -7.4 °C 30.30in /  1026hPa Calm   1.0mph /  1.6km/h 17% 0.00in /  0mm 0.0 W/m2
18:45 63.9 °F /  17.7 °C 18.1 °F /  -7.7 °C 30.31in /  1026.3hPa Calm   3.0mph /  4.8km/h 17% 0.00in /  0mm 0.0 W/m2
18:51 63.3 °F /  17.4 °C 17.8 °F /  -7.9 °C 30.31in /  1026.3hPa NNE 2.0mph /  3.2km/h 2.0mph /  3.2km/h 17% 0.00in /  0mm 0.0 W/m2
18:58 63.0 °F /  17.2 °C 17.4 °F /  -8.1 °C 30.31in /  1026.3hPa East 0.9mph /  1.4km/h 1.0mph /  1.6km/h 17% 0.00in /  0mm 0.0 W/m2
19:04 62.8 °F /  17.1 °C 17.2 °F /  -8.2 °C 30.31in /  1026.3hPa Calm   2.0mph /  3.2km/h 17% 0.00in /  0mm 0.0 W/m2
19:10 62.2 °F /  16.8 °C 16.9 °F /  -8.4 °C 30.31in /  1026.3hPa ENE 3.0mph /  4.8km/h 3.0mph /  4.8km/h 17% 0.00in /  0mm 0.0 W/m2
19:16 61.9 °F /  16.6 °C 18.0 °F /  -7.8 °C 30.32in /  1026.6hPa ENE 2.0mph /  3.2km/h 3.0mph /  4.8km/h 18% 0.00in /  0mm 0.0 W/m2
19:21 61.7 °F /  16.5 °C 17.8 °F /  -7.9 °C 30.32in /  1026.6hPa Calm   3.0mph /  4.8km/h 18% 0.00in /  0mm 0.0 W/m2
19:26 61.3 °F /  16.3 °C 17.4 °F /  -8.1 °C 30.32in /  1026.6hPa Calm   3.0mph /  4.8km/h 18% 0.00in /  0mm 0.0 W/m2
19:32 61.0 °F /  16.1 °C 17.2 °F /  -8.2 °C 30.32in /  1026.6hPa Calm   2.0mph /  3.2km/h 18% 0.00in /  0mm 0.0 W/m2
19:39 60.6 °F /  15.9 °C 16.9 °F /  -8.4 °C 30.32in /  1026.6hPa Calm   3.0mph /  4.8km/h 18% 0.00in /  0mm 0.0 W/m2
19:45 60.4 °F /  15.8 °C 18.0 °F /  -7.8 °C 30.32in /  1026.6hPa Calm   1.0mph /  1.6km/h 19% 0.00in /  0mm 0.0 W/m2
19:51 60.3 °F /  15.7 °C 17.8 °F /  -7.9 °C 30.32in /  1026.6hPa Calm   2.0mph /  3.2km/h 19% 0.00in /  0mm 0.0 W/m2
19:57 59.9 °F /  15.5 °C 18.7 °F /  -7.4 °C 30.32in /  1026.6hPa ESE 0.9mph /  1.4km/h 1.0mph /  1.6km/h 20% 0.00in /  0mm 0.0 W/m2
20:03 59.5 °F /  15.3 °C 18.5 °F /  -7.5 °C 30.32in /  1026.6hPa Calm   2.0mph /  3.2km/h 20% 0.00in /  0mm 0.0 W/m2
20:09 59.4 °F /  15.2 °C 18.3 °F /  -7.6 °C 30.33in /  1027hPa ENE 0.9mph /  1.4km/h 2.0mph /  3.2km/h 20% 0.00in /  0mm 0.0 W/m2
20:15 59.0 °F /  15 °C 18.0 °F /  -7.8 °C 30.33in /  1027hPa Calm   3.0mph /  4.8km/h 20% 0.00in /  0mm 0.0 W/m2
20:21 58.6 °F /  14.8 °C 17.6 °F /  -8 °C 30.33in /  1027hPa Calm   2.0mph /  3.2km/h 20% 0.00in /  0mm 0.0 W/m2
20:27 58.3 °F /  14.6 °C 18.5 °F /  -7.5 °C 30.33in /  1027hPa Calm   2.0mph /  3.2km/h 21% 0.00in /  0mm 0.0 W/m2
20:33 58.1 °F /  14.5 °C 18.3 °F /  -7.6 °C 30.33in /  1027hPa SE 2.0mph /  3.2km/h 5.0mph /  8km/h 21% 0.00in /  0mm 0.0 W/m2
20:39 57.9 °F /  14.4 °C 18.1 °F /  -7.7 °C 30.33in /  1027hPa NE 2.0mph /  3.2km/h 2.0mph /  3.2km/h 21% 0.00in /  0mm 0.0 W/m2
20:45 57.9 °F /  14.4 °C 18.1 °F /  -7.7 °C 30.33in /  1027hPa East 0.9mph /  1.4km/h 4.0mph /  6.4km/h 21% 0.00in /  0mm 0.0 W/m2
20:51 57.7 °F /  14.3 °C 18.1 °F /  -7.7 °C 30.33in /  1027hPa East 0.9mph /  1.4km/h 4.0mph /  6.4km/h 21% 0.00in /  0mm 0.0 W/m2
20:57 57.7 °F /  14.3 °C 18.1 °F /  -7.7 °C 30.33in /  1027hPa East 2.0mph /  3.2km/h 5.0mph /  8km/h 21% 0.00in /  0mm 0.0 W/m2
21:04 57.6 °F /  14.2 °C 18.0 °F /  -7.8 °C 30.33in /  1027hPa NNE 2.0mph /  3.2km/h 4.0mph /  6.4km/h 21% 0.00in /  0mm 0.0 W/m2
21:10 57.6 °F /  14.2 °C 18.0 °F /  -7.8 °C 30.33in /  1027hPa NNE 2.0mph /  3.2km/h 2.0mph /  3.2km/h 21% 0.00in /  0mm 0.0 W/m2
21:16 57.6 °F /  14.2 °C 18.0 °F /  -7.8 °C 30.33in /  1027hPa ENE 0.9mph /  1.4km/h 4.0mph /  6.4km/h 21% 0.00in /  0mm 0.0 W/m2
21:22 57.4 °F /  14.1 °C 17.8 °F /  -7.9 °C 30.33in /  1027hPa Calm   5.0mph /  8km/h 21% 0.00in /  0mm 0.0 W/m2
21:28 57.4 °F /  14.1 °C 18.9 °F /  -7.3 °C 30.33in /  1027hPa East 0.9mph /  1.4km/h 3.0mph /  4.8km/h 22% 0.00in /  0mm 0.0 W/m2
21:34 57.2 °F /  14 °C 17.6 °F /  -8 °C 30.33in /  1027hPa ENE 2.0mph /  3.2km/h 3.0mph /  4.8km/h 21% 0.00in /  0mm 0.0 W/m2
21:40 57.0 °F /  13.9 °C 18.5 °F /  -7.5 °C 30.33in /  1027hPa ESE 2.0mph /  3.2km/h 5.0mph /  8km/h 22% 0.00in /  0mm 0.0 W/m2
21:46 56.8 °F /  13.8 °C 18.3 °F /  -7.6 °C 30.33in /  1027hPa ENE 0.9mph /  1.4km/h 4.0mph /  6.4km/h 22% 0.00in /  0mm 0.0 W/m2
21:52 56.7 °F /  13.7 °C 18.3 °F /  -7.6 °C 30.33in /  1027hPa ENE 0.9mph /  1.4km/h 3.0mph /  4.8km/h 22% 0.00in /  0mm 0.0 W/m2
21:58 56.7 °F /  13.7 °C 18.3 °F /  -7.6 °C 30.33in /  1027hPa East 5.0mph /  8km/h 5.0mph /  8km/h 22% 0.00in /  0mm 0.0 W/m2
22:04 56.5 °F /  13.6 °C 18.1 °F /  -7.7 °C 30.33in /  1027hPa Calm   3.0mph /  4.8km/h 22% 0.00in /  0mm 0.0 W/m2
22:10 56.5 °F /  13.6 °C 18.1 °F /  -7.7 °C 30.33in /  1027hPa ENE 2.0mph /  3.2km/h 3.0mph /  4.8km/h 22% 0.00in /  0mm 0.0 W/m2
22:16 56.5 °F /  13.6 °C 18.1 °F /  -7.7 °C 30.33in /  1027hPa East 0.9mph /  1.4km/h 2.0mph /  3.2km/h 22% 0.00in /  0mm 0.0 W/m2
22:22 56.5 °F /  13.6 °C 18.1 °F /  -7.7 °C 30.33in /  1027hPa Calm   1.0mph /  1.6km/h 22% 0.00in /  0mm 0.0 W/m2
22:28 56.3 °F /  13.5 °C 18.0 °F /  -7.8 °C 30.33in /  1027hPa Calm   3.0mph /  4.8km/h 22% 0.00in /  0mm 0.0 W/m2
22:34 56.1 °F /  13.4 °C 17.8 °F /  -7.9 °C 30.33in /  1027hPa Calm   2.0mph /  3.2km/h 22% 0.00in /  0mm 0.0 W/m2
22:41 55.8 °F /  13.2 °C 18.5 °F /  -7.5 °C 30.33in /  1027hPa Calm   4.0mph /  6.4km/h 23% 0.00in /  0mm 0.0 W/m2
22:47 55.6 °F /  13.1 °C 18.3 °F /  -7.6 °C 30.32in /  1026.6hPa ENE 2.0mph /  3.2km/h 3.0mph /  4.8km/h 23% 0.00in /  0mm 0.0 W/m2
22:53 55.4 °F /  13 °C 18.1 °F /  -7.7 °C 30.32in /  1026.6hPa NE 2.0mph /  3.2km/h 3.0mph /  4.8km/h 23% 0.00in /  0mm 0.0 W/m2
22:59 55.2 °F /  12.9 °C 18.1 °F /  -7.7 °C 30.32in /  1026.6hPa Calm   4.0mph /  6.4km/h 23% 0.00in /  0mm 0.0 W/m2
23:05 55.0 °F /  12.8 °C 18.0 °F /  -7.8 °C 30.32in /  1026.6hPa Calm   4.0mph /  6.4km/h 23% 0.00in /  0mm 0.0 W/m2
23:11 54.9 °F /  12.7 °C 17.8 °F /  -7.9 °C 30.32in /  1026.6hPa Calm   2.0mph /  3.2km/h 23% 0.00in /  0mm 0.0 W/m2
23:18 54.7 °F /  12.6 °C 17.6 °F /  -8 °C 30.31in /  1026.3hPa Calm   1.0mph /  1.6km/h 23% 0.00in /  0mm 0.0 W/m2
23:24 54.3 °F /  12.4 °C 18.3 °F /  -7.6 °C 30.31in /  1026.3hPa Calm     24% 0.00in /  0mm 0.0 W/m2
23:30 54.0 °F /  12.2 °C 18.0 °F /  -7.8 °C 30.31in /  1026.3hPa Calm     24% 0.00in /  0mm 0.0 W/m2
23:36 53.6 °F /  12 °C 17.6 °F /  -8 °C 30.31in /  1026.3hPa Calm     24% 0.00in /  0mm 0.0 W/m2
23:42 53.2 °F /  11.8 °C 18.3 °F /  -7.6 °C 30.31in /  1026.3hPa Calm     25% 0.00in /  0mm 0.0 W/m2
23:48 52.9 °F /  11.6 °C 18.9 °F /  -7.3 °C 30.31in /  1026.3hPa Calm     26% 0.00in /  0mm 0.0 W/m2
23:54 52.5 °F /  11.4 °C 18.7 °F /  -7.4 °C 30.32in /  1026.6hPa Calm     26% 0.00in /  0mm 0.0 W/m2
Olympia, Windhoek, Namibia
Compliments of Weather Underground - 3 mb